createdAt,value
2023-04-18T00:02:09.406Z,36.65
2023-04-18T00:04:36.875Z,41.25
2023-04-18T00:07:03.969Z,34.50
2023-04-18T00:09:31.186Z,40.45
2023-04-18T00:11:58.377Z,43.92
2023-04-18T00:14:25.429Z,33.75
2023-04-18T00:16:54.336Z,42.83
2023-04-18T00:19:21.792Z,32.65
2023-04-18T00:21:49.620Z,35.03
2023-04-18T00:24:16.832Z,25.95
2023-04-18T00:26:43.956Z,26.30
2023-04-18T00:29:11.135Z,28.92
2023-04-18T00:31:38.070Z,44.85
2023-04-18T00:34:05.588Z,35.17
2023-04-18T00:36:33.067Z,37.75
2023-04-18T00:39:00.516Z,35.90
2023-04-18T00:41:28.468Z,29.95
2023-04-18T00:43:55.910Z,22.38
2023-04-18T00:46:23.591Z,21.15
2023-04-18T00:48:50.897Z,24.05
2023-04-18T00:51:18.415Z,26.95
2023-04-18T00:53:46.297Z,34.65
2023-04-18T00:56:13.610Z,34.60
2023-04-18T00:58:41.145Z,34.60
2023-04-18T01:01:09.816Z,37.60
2023-04-18T01:03:37.622Z,30.30
2023-04-18T01:06:05.043Z,31.65
2023-04-18T01:08:34.011Z,30.20
2023-04-18T01:11:01.168Z,24.95
2023-04-18T01:13:28.194Z,27.98
2023-04-18T01:15:56.196Z,27.13
2023-04-18T01:18:24.531Z,25.92
2023-04-18T01:20:53.438Z,29.77
2023-04-18T01:23:21.625Z,30.25
2023-04-18T01:25:52.248Z,32.92
2023-04-18T01:28:24.147Z,31.75
2023-04-18T01:30:51.649Z,26.20
2023-04-18T01:33:18.892Z,40.35
2023-04-18T01:35:47.949Z,27.63
2023-04-18T01:38:15.149Z,26.67
2023-04-18T01:40:42.262Z,20.95
2023-04-18T01:43:09.783Z,40.05
2023-04-18T01:45:38.661Z,27.23
2023-04-18T01:48:06.108Z,35.75
2023-04-18T01:50:33.765Z,40.83
2023-04-18T01:53:00.878Z,36.10
2023-04-18T01:55:28.136Z,40.95
2023-04-18T01:57:55.357Z,32.47
2023-04-18T02:00:22.766Z,42.20
2023-04-18T02:02:50.648Z,37.15
2023-04-18T02:05:22.255Z,28.88
2023-04-18T02:07:50.446Z,32.85
2023-04-18T02:10:19.171Z,36.80
2023-04-18T02:12:46.869Z,27.30
2023-04-18T02:15:14.218Z,34.97
2023-04-18T02:17:42.264Z,33.72
2023-04-18T02:20:11.092Z,62.25
2023-04-18T02:22:41.680Z,68.32
2023-04-18T02:25:14.309Z,78.93
2023-04-18T02:27:41.506Z,64.13
2023-04-18T02:30:09.430Z,58.22
2023-04-18T02:32:39.336Z,34.58
2023-04-18T02:35:06.972Z,36.63
2023-04-18T02:37:34.104Z,25.65
2023-04-18T02:40:01.456Z,32.03
2023-04-18T02:42:33.149Z,33.60
2023-04-18T02:45:01.767Z,27.60
2023-04-18T02:47:40.486Z,31.30
2023-04-18T02:50:17.539Z,29.80
2023-04-18T02:52:51.195Z,25.90
2023-04-18T02:55:21.266Z,20.23
2023-04-18T02:57:48.848Z,24.35
2023-04-18T03:00:45.538Z,17.15
2023-04-18T03:03:30.824Z,29.00
2023-04-18T03:06:16.592Z,33.40
2023-04-18T03:08:46.158Z,25.45
2023-04-18T03:11:17.020Z,25.70
2023-04-18T03:13:45.902Z,25.95
2023-04-18T03:16:15.255Z,30.52
2023-04-18T03:18:43.727Z,18.83
2023-04-18T03:21:11.584Z,26.55
2023-04-18T03:23:39.130Z,26.02
2023-04-18T03:26:08.315Z,30.60
2023-04-18T03:28:37.889Z,31.05
2023-04-18T03:31:05.697Z,27.35
2023-04-18T03:33:35.975Z,21.63
2023-04-18T03:36:09.417Z,32.13
2023-04-18T03:38:40.670Z,31.52
2023-04-18T03:41:09.061Z,27.17
2023-04-18T03:43:38.183Z,36.40
2023-04-18T03:46:05.599Z,42.08
2023-04-18T03:48:37.385Z,48.95
2023-04-18T03:51:09.208Z,26.27
2023-04-18T03:53:37.160Z,26.88
2023-04-18T03:56:04.347Z,33.85
2023-04-18T03:59:01.023Z,29.85
2023-04-18T04:01:28.366Z,40.38
2023-04-18T04:03:56.030Z,26.48
2023-04-18T04:06:24.285Z,36.10
2023-04-18T04:08:52.237Z,33.95
2023-04-18T04:11:24.147Z,32.78
2023-04-18T04:13:54.628Z,45.75
2023-04-18T04:16:28.723Z,43.05
2023-04-18T04:18:59.372Z,35.60
2023-04-18T04:21:33.494Z,41.45
2023-04-18T04:24:01.700Z,35.70
2023-04-18T04:29:19.127Z,39.35
2023-04-18T04:31:48.358Z,41.30
2023-04-18T04:34:24.987Z,39.75
2023-04-18T04:36:54.590Z,43.83
2023-04-18T04:39:42.261Z,29.50
2023-04-18T04:42:44.395Z,30.30
2023-04-18T04:45:24.676Z,36.67
2023-04-18T04:48:02.945Z,39.72
2023-04-18T04:50:31.140Z,31.50
2023-04-18T04:52:58.759Z,47.38
2023-04-18T04:55:26.466Z,28.40
2023-04-18T04:57:55.792Z,32.55
2023-04-18T05:00:37.364Z,38.97
2023-04-18T05:03:05.014Z,25.50
2023-04-18T05:05:33.113Z,37.30
2023-04-18T05:08:00.697Z,31.88
2023-04-18T05:10:28.158Z,30.30
2023-04-18T05:12:55.378Z,38.35
2023-04-18T05:15:23.481Z,30.42
2023-04-18T05:17:50.770Z,41.25
2023-04-18T05:20:17.836Z,38.78
2023-04-18T05:22:44.961Z,36.92
2023-04-18T05:25:12.749Z,45.67
2023-04-18T05:27:39.994Z,31.20
2023-04-18T05:30:07.782Z,33.38
2023-04-18T05:32:34.964Z,30.60
2023-04-18T05:35:02.176Z,36.28
2023-04-18T05:37:30.405Z,31.58
2023-04-18T05:39:59.299Z,31.25
2023-04-18T05:42:27.858Z,26.85
2023-04-18T05:44:54.883Z,32.78
2023-04-18T05:47:27.100Z,34.67
2023-04-18T05:49:55.577Z,42.20
2023-04-18T05:52:23.126Z,50.45
2023-04-18T05:54:50.168Z,39.92
2023-04-18T05:57:17.534Z,47.97
2023-04-18T05:59:44.918Z,24.88
2023-04-18T06:02:13.657Z,32.13
2023-04-18T06:04:42.659Z,36.85
2023-04-18T06:07:10.563Z,45.53
2023-04-18T06:09:37.723Z,32.25
2023-04-18T06:12:05.099Z,36.00
2023-04-18T06:14:32.313Z,37.30
2023-04-18T06:16:59.662Z,34.35
2023-04-18T06:19:26.849Z,37.45
2023-04-18T06:21:54.080Z,36.22
2023-04-18T06:24:21.285Z,23.58
2023-04-18T06:26:48.357Z,37.97
2023-04-18T06:29:15.566Z,31.92
2023-04-18T06:31:46.344Z,28.35
2023-04-18T06:34:14.211Z,22.90
2023-04-18T06:36:41.503Z,25.33
2023-04-18T06:39:09.025Z,24.80
2023-04-18T06:41:36.209Z,25.65
2023-04-18T06:44:04.711Z,23.42
2023-04-18T06:46:32.822Z,22.13
2023-04-18T06:49:00.941Z,19.95
2023-04-18T06:51:29.136Z,24.42
2023-04-18T06:53:56.343Z,20.73
2023-04-18T06:56:23.780Z,20.80
2023-04-18T06:58:53.038Z,24.33
2023-04-18T07:01:21.071Z,28.75
2023-04-18T07:03:48.219Z,23.48
2023-04-18T07:06:15.383Z,18.08
2023-04-18T07:08:42.596Z,13.73
2023-04-18T07:11:09.787Z,19.30
2023-04-18T07:13:36.935Z,18.02
2023-04-18T07:16:04.218Z,19.27
2023-04-18T07:18:37.874Z,14.63
2023-04-18T07:21:09.228Z,14.65
2023-04-18T07:23:39.636Z,16.42
2023-04-18T07:26:07.110Z,21.73
2023-04-18T07:28:34.776Z,13.50
2023-04-18T07:31:03.496Z,14.63
2023-04-18T07:33:35.284Z,12.88
2023-04-18T07:36:03.416Z,14.23
2023-04-18T07:38:31.067Z,14.35
2023-04-18T07:41:02.356Z,12.52
2023-04-18T07:43:30.901Z,11.60
2023-04-18T07:45:58.894Z,12.13
2023-04-18T07:48:27.368Z,15.68
2023-04-18T07:51:17.185Z,13.27
2023-04-18T07:53:50.921Z,14.75
2023-04-18T07:56:19.672Z,19.08
2023-04-18T07:58:49.206Z,16.10
2023-04-18T08:01:18.664Z,16.83
2023-04-18T08:03:51.638Z,29.90
2023-04-18T08:06:18.990Z,19.45
2023-04-18T08:08:46.627Z,16.00
2023-04-18T08:11:14.028Z,21.42
2023-04-18T08:13:41.120Z,26.80
2023-04-18T08:16:09.196Z,21.85
2023-04-18T08:18:37.163Z,22.58
2023-04-18T08:21:04.908Z,20.02
2023-04-18T08:23:32.096Z,22.67
2023-04-18T08:25:59.505Z,19.20
2023-04-18T08:28:26.938Z,14.02
2023-04-18T08:30:55.318Z,14.52
2023-04-18T08:33:26.587Z,20.40
2023-04-18T08:35:54.411Z,12.68
2023-04-18T08:38:21.625Z,16.80
2023-04-18T08:40:49.085Z,10.73
2023-04-18T08:43:16.231Z,11.73
2023-04-18T08:45:44.891Z,19.45
2023-04-18T08:48:14.063Z,12.25
2023-04-18T08:50:42.144Z,19.15
2023-04-18T08:53:10.562Z,18.65
2023-04-18T08:55:40.695Z,11.10
2023-04-18T08:58:08.130Z,14.13
2023-04-18T09:00:35.428Z,17.75
2023-04-18T09:03:03.825Z,11.27
2023-04-18T09:05:31.437Z,14.88
2023-04-18T09:07:58.521Z,11.95
2023-04-18T09:10:30.292Z,14.77
2023-04-18T09:12:58.579Z,12.00
2023-04-18T09:15:29.356Z,14.27
2023-04-18T09:17:59.599Z,19.27
2023-04-18T09:20:38.281Z,22.80
2023-04-18T09:23:11.373Z,14.87
2023-04-18T09:25:44.494Z,22.98
2023-04-18T09:28:29.123Z,15.95
2023-04-18T09:30:58.436Z,11.88
2023-04-18T09:33:33.123Z,13.97
2023-04-18T09:36:21.526Z,21.65
2023-04-18T09:38:50.397Z,14.38
2023-04-18T09:41:20.697Z,14.27
2023-04-18T09:43:49.533Z,12.20
2023-04-18T09:46:17.881Z,13.07
2023-04-18T09:48:45.669Z,13.43
2023-04-18T09:51:16.376Z,19.48
2023-04-18T09:53:47.591Z,11.80
2023-04-18T09:56:26.232Z,12.18
2023-04-18T09:59:03.432Z,13.10
2023-04-18T10:01:31.056Z,14.77
2023-04-18T10:04:02.390Z,17.45
2023-04-18T10:06:30.239Z,15.75
2023-04-18T10:08:57.821Z,12.48
2023-04-18T10:11:25.409Z,21.85
2023-04-18T10:13:57.692Z,19.27
2023-04-18T10:16:26.218Z,15.68
2023-04-18T10:18:53.473Z,19.00
2023-04-18T10:21:22.047Z,18.98
2023-04-18T10:23:50.540Z,15.60
2023-04-18T10:26:17.683Z,18.27
2023-04-18T10:28:53.675Z,19.65
2023-04-18T10:31:29.215Z,17.38
2023-04-18T10:34:18.233Z,16.25
2023-04-18T10:37:05.050Z,19.40
2023-04-18T10:39:48.682Z,22.35
2023-04-18T10:42:15.793Z,16.63
2023-04-18T10:44:43.031Z,16.40
2023-04-18T10:47:10.087Z,18.98
2023-04-18T10:49:37.156Z,15.75
2023-04-18T10:52:06.294Z,13.55
2023-04-18T10:54:57.619Z,14.68
2023-04-18T10:57:37.125Z,17.42
2023-04-18T11:00:05.726Z,15.95
2023-04-18T11:02:33.563Z,14.23
2023-04-18T11:05:04.757Z,16.92
2023-04-18T11:07:44.673Z,14.73
2023-04-18T11:10:13.170Z,17.42
2023-04-18T11:12:41.387Z,18.45
2023-04-18T11:15:17.800Z,16.45
2023-04-18T11:17:45.064Z,20.83
2023-04-18T11:20:14.541Z,15.10
2023-04-18T11:22:46.511Z,16.77
2023-04-18T11:25:16.542Z,16.98
2023-04-18T11:27:48.896Z,17.17
2023-04-18T11:30:16.372Z,22.20
2023-04-18T11:32:44.103Z,24.58
2023-04-18T11:35:12.852Z,25.95
2023-04-18T11:37:42.045Z,33.70
2023-04-18T11:40:10.234Z,29.38
2023-04-18T11:42:39.448Z,25.23
2023-04-18T11:45:12.132Z,25.42
2023-04-18T11:47:42.129Z,22.38
2023-04-18T11:50:11.309Z,22.38
2023-04-18T11:52:41.190Z,21.20
2023-04-18T11:55:21.465Z,22.17
2023-04-18T11:57:56.271Z,26.10
2023-04-18T12:00:38.674Z,26.67
2023-04-18T12:03:13.375Z,25.10
2023-04-18T12:05:42.543Z,26.00
2023-04-18T12:08:11.937Z,23.75
2023-04-18T12:10:47.255Z,21.58
2023-04-18T12:13:15.310Z,18.65
2023-04-18T12:15:47.070Z,24.83
2023-04-18T12:18:17.127Z,24.25
2023-04-18T12:20:54.305Z,23.48
2023-04-18T12:23:35.971Z,20.02
2023-04-18T12:26:08.050Z,27.13
2023-04-18T12:28:35.815Z,21.02
2023-04-18T12:31:07.138Z,23.27
2023-04-18T12:33:36.831Z,28.38
2023-04-18T12:36:05.582Z,23.70
2023-04-18T12:38:32.757Z,21.38
2023-04-18T12:41:00.111Z,21.80
2023-04-18T12:43:27.306Z,23.17
2023-04-18T12:45:54.547Z,16.13
2023-04-18T12:48:21.657Z,18.58
2023-04-18T12:50:48.920Z,20.30
2023-04-18T12:53:16.504Z,17.55
2023-04-18T12:55:44.557Z,19.17
2023-04-18T12:58:15.274Z,20.90
2023-04-18T13:00:42.539Z,17.52
2023-04-18T13:03:11.739Z,22.63
2023-04-18T13:05:40.588Z,20.50
2023-04-18T13:08:16.268Z,21.05
2023-04-18T13:10:44.791Z,25.10
2023-04-18T13:13:12.139Z,24.23
2023-04-18T13:15:39.480Z,23.58
2023-04-18T13:18:06.844Z,17.98
2023-04-18T13:20:34.915Z,17.65
2023-04-18T13:23:03.019Z,30.67
2023-04-18T13:25:30.244Z,23.35
2023-04-18T13:27:58.656Z,27.50
2023-04-18T13:30:26.286Z,19.35
2023-04-18T13:32:53.618Z,23.70
2023-04-18T13:35:20.770Z,16.80
2023-04-18T13:37:48.015Z,22.23
2023-04-18T13:40:15.864Z,20.35
2023-04-18T13:42:43.407Z,19.73
2023-04-18T13:45:10.953Z,23.80
2023-04-18T13:47:38.428Z,22.92
2023-04-18T13:50:06.214Z,20.70
2023-04-18T13:52:33.407Z,20.40
2023-04-18T13:55:01.118Z,18.13
2023-04-18T13:57:28.571Z,14.80
2023-04-18T13:59:55.793Z,15.18
2023-04-18T14:02:23.244Z,13.23
2023-04-18T14:04:52.055Z,14.18
2023-04-18T14:07:19.444Z,14.10
2023-04-18T14:09:48.273Z,13.82
2023-04-18T14:12:15.456Z,20.75
2023-04-18T14:14:42.526Z,23.55
2023-04-18T14:17:09.615Z,21.35
2023-04-18T14:19:36.758Z,16.77
2023-04-18T14:22:03.875Z,18.40
2023-04-18T14:24:30.914Z,19.33
2023-04-18T14:26:58.519Z,18.08
2023-04-18T14:29:25.583Z,24.00
2023-04-18T14:31:52.704Z,13.65
2023-04-18T14:34:19.893Z,16.33
2023-04-18T14:36:47.072Z,15.40
2023-04-18T14:39:14.322Z,23.58
2023-04-18T14:41:41.730Z,18.45
2023-04-18T14:44:08.916Z,14.02
2023-04-18T14:46:36.006Z,16.73
2023-04-18T14:49:03.076Z,16.55
2023-04-18T14:51:30.132Z,14.02
2023-04-18T14:53:57.210Z,16.13
2023-04-18T14:56:24.438Z,19.45
2023-04-18T14:58:51.588Z,24.92
2023-04-18T15:01:18.859Z,19.00
2023-04-18T15:03:46.281Z,15.68
2023-04-18T15:06:13.733Z,18.35
2023-04-18T15:08:41.511Z,24.55
2023-04-18T15:11:09.028Z,16.10
2023-04-18T15:13:36.808Z,19.40
2023-04-18T15:16:04.057Z,28.00
2023-04-18T15:18:31.224Z,44.38
2023-04-18T15:21:01.211Z,20.83
2023-04-18T15:23:28.661Z,23.17
2023-04-18T15:25:56.505Z,19.35
2023-04-18T15:28:23.850Z,22.85
2023-04-18T15:30:51.267Z,28.20
2023-04-18T15:33:20.587Z,19.63
2023-04-18T15:35:48.122Z,20.25
2023-04-18T15:38:15.297Z,36.53
2023-04-18T15:40:43.683Z,20.48
2023-04-18T15:43:11.844Z,15.90
2023-04-18T15:45:39.082Z,21.33
2023-04-18T15:48:06.795Z,22.38
2023-04-18T15:50:33.999Z,24.30
2023-04-18T15:53:02.438Z,20.27
2023-04-18T15:55:29.931Z,20.48
2023-04-18T15:57:57.470Z,47.17
2023-04-18T16:00:25.082Z,21.15
2023-04-18T16:02:52.897Z,29.73
2023-04-18T16:05:20.382Z,24.08
2023-04-18T16:07:47.515Z,22.90
2023-04-18T16:10:15.460Z,26.40
2023-04-18T16:12:42.976Z,23.30
2023-04-18T16:15:10.691Z,24.67
2023-04-18T16:17:38.267Z,21.20
2023-04-18T16:20:08.343Z,23.38
2023-04-18T16:22:36.137Z,21.13
2023-04-18T16:25:04.700Z,22.27
2023-04-18T16:27:33.157Z,25.23
2023-04-18T16:30:00.428Z,32.22
2023-04-18T16:32:27.652Z,16.48
2023-04-18T16:34:54.901Z,22.80
2023-04-18T16:37:22.178Z,28.33
2023-04-18T16:39:49.392Z,21.55
2023-04-18T16:42:16.628Z,23.40
2023-04-18T16:44:45.402Z,25.30
2023-04-18T16:47:12.642Z,20.60
2023-04-18T16:49:40.681Z,23.73
2023-04-18T16:52:07.710Z,22.73
2023-04-18T16:54:35.661Z,25.30
2023-04-18T16:57:02.925Z,28.85
2023-04-18T16:59:30.184Z,28.50
2023-04-18T17:01:57.299Z,31.60
2023-04-18T17:04:27.087Z,25.85
2023-04-18T17:06:54.321Z,18.17
2023-04-18T17:09:21.436Z,20.13
2023-04-18T17:11:48.689Z,19.80
2023-04-18T17:14:16.718Z,25.88
2023-04-18T17:16:44.116Z,29.70
2023-04-18T17:19:11.508Z,30.38
2023-04-18T17:21:38.872Z,24.65
2023-04-18T17:24:07.175Z,21.85
2023-04-18T17:26:35.789Z,23.52
2023-04-18T17:29:04.602Z,22.20
2023-04-18T17:31:32.770Z,29.33
2023-04-18T17:34:00.997Z,33.42
2023-04-18T17:36:28.409Z,20.65
2023-04-18T17:38:56.266Z,19.25
2023-04-18T17:41:23.447Z,22.98
2023-04-18T17:43:51.473Z,27.10
2023-04-18T17:46:18.802Z,32.38
2023-04-18T17:48:46.179Z,23.73
2023-04-18T17:51:13.353Z,30.27
2023-04-18T17:53:40.419Z,25.02
2023-04-18T17:56:07.531Z,24.30
2023-04-18T17:58:34.723Z,24.40
2023-04-18T18:01:01.934Z,22.15
2023-04-18T18:03:29.274Z,20.58
2023-04-18T18:05:56.743Z,20.05
2023-04-18T18:08:24.609Z,23.88
2023-04-18T18:10:51.665Z,27.85
2023-04-18T18:13:18.726Z,20.80
2023-04-18T18:15:45.883Z,106.40
2023-04-18T18:18:26.896Z,25.17
2023-04-18T18:20:54.631Z,19.55
2023-04-18T18:23:21.804Z,26.83
2023-04-18T18:25:50.346Z,15.27
2023-04-18T18:28:18.009Z,18.50
2023-04-18T18:30:45.102Z,18.40
2023-04-18T18:33:12.121Z,18.88
2023-04-18T18:35:39.415Z,24.17
2023-04-18T18:38:06.660Z,20.42
2023-04-18T18:40:34.392Z,18.48
2023-04-18T18:43:01.596Z,19.83
2023-04-18T18:45:28.782Z,17.23
2023-04-18T18:47:55.939Z,19.88
2023-04-18T18:50:23.318Z,22.80
2023-04-18T18:52:50.428Z,21.98
2023-04-18T18:55:17.768Z,19.50
2023-04-18T18:57:44.974Z,16.25
2023-04-18T19:00:13.514Z,17.88
2023-04-18T19:02:41.136Z,14.48
2023-04-18T19:05:09.004Z,17.80
2023-04-18T19:07:36.173Z,17.00
2023-04-18T19:10:03.655Z,18.45
2023-04-18T19:12:34.694Z,20.08
2023-04-18T19:15:02.342Z,18.30
2023-04-18T19:17:36.035Z,17.80
2023-04-18T19:20:03.647Z,20.25
2023-04-18T19:22:33.124Z,15.82
2023-04-18T19:25:00.934Z,20.20
2023-04-18T19:27:28.889Z,22.20
2023-04-18T19:29:56.019Z,17.83
2023-04-18T19:32:32.013Z,16.51
2023-04-18T19:34:59.735Z,17.35
2023-04-18T19:37:26.904Z,17.75
2023-04-18T19:39:54.104Z,18.38
2023-04-18T19:42:21.505Z,15.02
2023-04-18T19:44:48.529Z,14.82
2023-04-18T19:47:15.736Z,13.63
2023-04-18T19:49:44.684Z,14.45
2023-04-18T19:52:11.836Z,17.13
2023-04-18T19:54:39.014Z,13.48
2023-04-18T19:57:06.444Z,12.50
2023-04-18T19:59:33.696Z,17.63
2023-04-18T20:02:03.461Z,16.77
2023-04-18T20:04:34.454Z,13.32
2023-04-18T20:07:02.730Z,15.85
2023-04-18T20:09:29.966Z,32.15
2023-04-18T20:12:00.526Z,23.63
2023-04-18T20:14:29.141Z,18.45
2023-04-18T20:16:57.126Z,19.60
2023-04-18T20:19:27.192Z,18.85
2023-04-18T20:21:54.229Z,16.92
2023-04-18T20:24:21.525Z,15.48
2023-04-18T20:26:48.644Z,13.60
2023-04-18T20:29:16.280Z,19.05
2023-04-18T20:31:45.588Z,16.60
2023-04-18T20:34:20.363Z,14.25
2023-04-18T20:36:47.864Z,10.88
2023-04-18T20:39:15.744Z,14.07
2023-04-18T20:41:49.200Z,13.60
2023-04-18T20:44:17.262Z,17.63
2023-04-18T20:46:44.390Z,16.80
2023-04-18T20:49:11.887Z,18.40
2023-04-18T20:51:38.952Z,17.20
2023-04-18T20:54:06.203Z,14.63
2023-04-18T20:56:33.988Z,16.05
2023-04-18T20:59:01.391Z,12.88
2023-04-18T21:01:28.657Z,14.30
2023-04-18T21:03:56.063Z,16.90
2023-04-18T21:06:28.516Z,14.82
2023-04-18T21:08:57.013Z,17.35
2023-04-18T21:11:25.965Z,21.70
2023-04-18T21:13:53.321Z,14.55
2023-04-18T21:16:24.254Z,18.38
2023-04-18T21:18:51.770Z,16.70
2023-04-18T21:21:24.985Z,13.98
2023-04-18T21:23:52.986Z,18.77
2023-04-18T21:26:22.046Z,15.27
2023-04-18T21:32:01.100Z,18.58
2023-04-18T21:34:58.621Z,21.52
2023-04-18T21:37:27.504Z,20.90
2023-04-18T21:40:00.221Z,17.92
2023-04-18T21:42:35.404Z,21.98
2023-04-18T21:45:06.289Z,25.85
2023-04-18T21:47:33.833Z,21.08
2023-04-18T21:50:00.944Z,24.67
2023-04-18T21:52:29.145Z,21.15
2023-04-18T21:57:47.795Z,20.90
2023-04-18T22:00:16.267Z,16.40
2023-04-18T22:02:48.250Z,14.63
2023-04-18T22:05:18.122Z,11.98
2023-04-18T22:07:57.902Z,15.32
2023-04-18T22:10:25.898Z,13.50
2023-04-18T22:12:56.224Z,16.48
2023-04-18T22:18:01.239Z,12.95
2023-04-18T22:20:32.717Z,14.85
2023-04-18T22:23:00.533Z,12.20
2023-04-18T22:25:27.687Z,14.40
2023-04-18T22:27:55.012Z,13.98
2023-04-18T22:30:22.374Z,16.70
2023-04-18T22:32:49.855Z,17.90
2023-04-18T22:35:17.090Z,39.90
2023-04-18T22:37:47.902Z,23.67
2023-04-18T22:40:16.910Z,25.83
2023-04-18T22:42:44.813Z,29.27
2023-04-18T22:45:12.142Z,19.02
2023-04-18T22:47:39.826Z,20.00
2023-04-18T22:50:07.997Z,18.05
2023-04-18T22:52:40.875Z,19.25
2023-04-18T22:55:09.429Z,19.20
2023-04-18T22:57:38.185Z,23.90
2023-04-18T23:00:06.750Z,23.60
2023-04-18T23:02:34.048Z,16.88
2023-04-18T23:05:02.684Z,21.52
2023-04-18T23:07:30.913Z,25.23
2023-04-18T23:10:07.893Z,25.17
2023-04-18T23:12:44.092Z,25.25
2023-04-18T23:15:15.031Z,24.30
2023-04-18T23:17:53.995Z,22.38
2023-04-18T23:20:21.887Z,25.52
2023-04-18T23:22:59.526Z,20.80
2023-04-18T23:25:26.935Z,18.38
2023-04-18T23:27:56.315Z,21.48
2023-04-18T23:30:27.002Z,19.75
2023-04-18T23:32:58.922Z,20.23
2023-04-18T23:35:31.887Z,19.70
2023-04-18T23:37:59.026Z,18.08
2023-04-18T23:40:26.248Z,22.25
2023-04-18T23:42:53.345Z,24.40
2023-04-18T23:45:20.612Z,18.40
2023-04-18T23:47:47.887Z,21.90
2023-04-18T23:50:15.026Z,18.90
2023-04-18T23:52:42.172Z,22.20
